CG Shrike — NPBG — position and weather

sailwx.info

Track history (hours):
 
Tides and Currents Weather Stations Pressure Air Temp Water Temp Dewpoint Dewpoint Depression Visibility Wind Speed Wind Dir Waves Ship Positions

CG Shrike

Last reported at 2018-Feb-15 14:45 UTC. Time now 2018-Feb-20 05:39 UTC.
Position N 40°28' W 074°01'.

Length 26 m; draft 1.7 m.

Type: Law enforcement. MMSI: 366999618.

Date/timePositionNaut miles runAvg speedWind from/ knotsBaromVisibWave heightAir tempDewpointWater temp
2018-Feb-15 14:45N 40°28' W 074°01'0 1.5
2018-Feb-15 14:27N 40°28' W 074°01'4 8.4
2018-Feb-15 14:00N 40°32' W 074°02'4 8.2
2018-Feb-15 13:29N 40°36' W 074°01'0 0.0
2018-Feb-15 12:56N 40°36' W 074°01'0 0.0
2018-Feb-15 12:26N 40°36' W 074°01'0 0.0
2018-Feb-15 11:59N 40°36' W 074°01'0 0.0
2018-Feb-15 11:29N 40°36' W 074°01'0 0.0
2018-Feb-15 10:56N 40°36' W 074°01'0 0.0
2018-Feb-15 10:29N 40°36' W 074°01'0 0.0
2018-Feb-15 09:56N 40°36' W 074°01'0 0.0
2018-Feb-15 09:28N 40°36' W 074°01'0 0.0
2018-Feb-15 08:58N 40°36' W 074°01'0 0.0
2018-Feb-15 08:28N 40°36' W 074°01'0 0.0
2018-Feb-15 07:55N 40°36' W 074°01'0 0.0
2018-Feb-15 07:25N 40°36' W 074°01'0 0.0
2018-Feb-15 06:59N 40°36' W 074°01'0 0.0
2018-Feb-15 06:25N 40°36' W 074°01'0 0.0
2018-Feb-15 05:59N 40°36' W 074°01'0 0.1
2018-Feb-15 05:29N 40°36' W 074°01'0 0.0
2018-Feb-15 04:56N 40°36' W 074°01'0 0.0
2018-Feb-15 04:29N 40°36' W 074°01'0 0.0
2018-Feb-15 03:56N 40°36' W 074°01'0 0.1
2018-Feb-15 03:29N 40°36' W 074°01'0 0.0
2018-Feb-15 02:59N 40°36' W 074°01'0 0.0
2018-Feb-15 02:29N 40°36' W 074°01'0 0.0
2018-Feb-15 01:59N 40°36' W 074°01'0 0.1
2018-Feb-15 01:29N 40°36' W 074°01'0 0.0
2018-Feb-15 00:53N 40°36' W 074°01'0 0.1
2018-Feb-15 00:25N 40°36' W 074°01'0 0.0
2018-Feb-14 23:53N 40°36' W 074°01'0 0.0
2018-Feb-14 23:29N 40°36' W 074°01'0 0.0
2018-Feb-14 22:59N 40°36' W 074°01'0 0.0
2018-Feb-14 22:28N 40°36' W 074°01'0 0.0
2018-Feb-14 21:58N 40°36' W 074°01'0 0.0
2018-Feb-14 21:28N 40°36' W 074°01'0 0.0
2018-Feb-14 20:52N 40°36' W 074°01'0 0.0
2018-Feb-14 20:28N 40°36' W 074°01'0 0.0
2018-Feb-14 19:58N 40°36' W 074°01'0 0.0
2018-Feb-14 19:26N 40°36' W 074°01'0 0.0
2018-Feb-14 18:56N 40°36' W 074°01'0 0.0
2018-Feb-14 18:29N 40°36' W 074°01'0 0.0
2018-Feb-14 17:59N 40°36' W 074°01'0 0.0
2018-Feb-14 17:29N 40°36' W 074°01'0 0.0
2018-Feb-14 16:59N 40°36' W 074°01'2 3.2
2018-Feb-14 16:30N 40°34' W 074°02'610.9
2018-Feb-14 15:58N 40°28' W 074°02'1 1.9
2018-Feb-14 15:29N 40°28' W 074°01'0 0.2
2018-Feb-14 14:59N 40°28' W 074°01'2 4.1
2018-Feb-14 14:29N 40°29' W 073°59'3 6.8
2018-Feb-14 14:00N 40°26' W 073°58'0 0.0
2018-Feb-14 13:30N 40°26' W 073°58'0 0.0
2018-Feb-14 12:57N 40°26' W 073°58'0 0.0
2018-Feb-14 12:30N 40°26' W 073°58'0 0.0
2018-Feb-14 11:54N 40°26' W 073°58'0 0.0
2018-Feb-14 11:30N 40°26' W 073°58'0 0.0
2018-Feb-14 10:57N 40°26' W 073°58'0 0.0
2018-Feb-14 10:30N 40°26' W 073°58'0 0.0
2018-Feb-14 09:57N 40°26' W 073°58'0 0.0
2018-Feb-14 09:30N 40°26' W 073°58'0 0.0
2018-Feb-14 08:57N 40°26' W 073°58'0 0.0
2018-Feb-14 08:27N 40°26' W 073°58'0 0.0
2018-Feb-14 07:57N 40°26' W 073°58'0 0.0
2018-Feb-14 07:30N 40°26' W 073°58'0 0.0
2018-Feb-14 07:00N 40°26' W 073°58'0 0.0
2018-Feb-14 06:30N 40°26' W 073°58'0 0.0
2018-Feb-14 05:18N 40°26' W 073°58'0 0.1
2018-Feb-14 04:57N 40°26' W 073°58'0 0.0
2018-Feb-14 04:30N 40°26' W 073°58'0 0.0
2018-Feb-14 04:00N 40°26' W 073°58'0 0.0
2018-Feb-14 03:30N 40°26' W 073°58'0 0.0
2018-Feb-14 03:00N 40°26' W 073°58'0 0.0
2018-Feb-14 02:27N 40°26' W 073°58'0 0.0
2018-Feb-14 02:01N 40°26' W 073°58'0 0.0
2018-Feb-14 01:30N 40°26' W 073°58'0 0.0
2018-Feb-14 00:57N 40°26' W 073°58'0 0.0
2018-Feb-14 00:30N 40°26' W 073°58'0 0.0
2018-Feb-13 23:45N 40°26' W 073°58'0 0.0
2018-Feb-13 23:27N 40°26' W 073°58'0 0.0
2018-Feb-13 22:57N 40°26' W 073°58'  
2018-Feb-08 06:30N 41°09' W 072°40'69 3.3
2018-Feb-07 09:30N 40°39' W 074°02'0 0.0
2018-Feb-07 09:00N 40°39' W 074°02'0 0.0
2018-Feb-07 08:27N 40°39' W 074°02'0 0.0
2018-Feb-07 08:00N 40°39' W 074°02'0 0.0
2018-Feb-07 07:30N 40°39' W 074°02'0 0.1
2018-Feb-07 07:00N 40°39' W 074°02'0 0.1
2018-Feb-07 06:30N 40°39' W 074°02'0 0.0
2018-Feb-07 06:00N 40°39' W 074°02'0 0.1
2018-Feb-07 05:30N 40°39' W 074°02'0 0.1
2018-Feb-07 05:00N 40°39' W 074°02'0 0.0
2018-Feb-07 04:30N 40°39' W 074°02'0 0.1
2018-Feb-07 04:00N 40°39' W 074°02'0 0.0
2018-Feb-07 03:30N 40°39' W 074°02'0 0.1
2018-Feb-07 02:55N 40°39' W 074°02'0 0.0
2018-Feb-07 02:28N 40°39' W 074°02'0 0.0
2018-Feb-07 02:00N 40°39' W 074°02'0 0.0
2018-Feb-07 01:30N 40°39' W 074°02'0 0.0
2018-Feb-07 01:00N 40°39' W 074°02'0 0.0
2018-Feb-07 00:30N 40°39' W 074°02'0 0.0
2018-Feb-07 00:00N 40°39' W 074°02'0 0.0
2018-Feb-06 23:27N 40°39' W 074°02'0 0.0
2018-Feb-06 23:00N 40°39' W 074°02'2 3.7
2018-Feb-06 22:30N 40°37' W 074°03'815.5
2018-Feb-06 22:00N 40°30' W 073°58'6 0.5
2018-Feb-06 11:00N 40°36' W 074°01'0 0.0
2018-Feb-06 10:30N 40°36' W 074°01'0 0.0
2018-Feb-06 09:58N 40°36' W 074°01'0 0.0
2018-Feb-06 09:28N 40°36' W 074°01'0 0.1
2018-Feb-06 08:58N 40°36' W 074°01'0 0.1
2018-Feb-06 08:28N 40°36' W 074°01'0 0.1
2018-Feb-06 07:58N 40°36' W 074°01'0 0.0
2018-Feb-06 07:19N 40°36' W 074°01'0 0.0
2018-Feb-06 06:55N 40°36' W 074°01'0 0.0
2018-Feb-06 06:28N 40°36' W 074°01'0 0.0
2018-Feb-06 05:55N 40°36' W 074°01'0 0.0
2018-Feb-06 05:28N 40°36' W 074°01'0 0.0
2018-Feb-06 04:58N 40°36' W 074°01'0 0.0
2018-Feb-06 04:28N 40°36' W 074°01'0 0.0
2018-Feb-06 03:55N 40°36' W 074°01'0 0.0
2018-Feb-06 03:28N 40°36' W 074°01'0 0.1
2018-Feb-06 02:55N 40°36' W 074°01'0 0.0
2018-Feb-06 02:21N 40°36' W 074°01'0 0.0
2018-Feb-06 01:57N 40°36' W 074°01'0 0.0
2018-Feb-06 01:30N 40°36' W 074°01'0 0.0
2018-Feb-06 00:54N 40°36' W 074°01'0 0.0
2018-Feb-06 00:27N 40°36' W 074°01'0 0.0
2018-Feb-06 00:00N 40°36' W 074°01'0 0.0
2018-Feb-05 23:28N 40°36' W 074°01'0 0.0
2018-Feb-05 22:58N 40°36' W 074°01'0 0.0
2018-Feb-05 22:25N 40°36' W 074°01'0 0.0
2018-Feb-05 21:55N 40°36' W 074°01'0 0.0
2018-Feb-05 21:28N 40°36' W 074°01'0 0.0
2018-Feb-05 20:52N 40°36' W 074°01'0 0.0
2018-Feb-05 20:28N 40°36' W 074°01'0 0.0
2018-Feb-05 19:58N 40°36' W 074°01'1 2.0
2018-Feb-05 19:28N 40°35' W 074°02'511.2
2018-Feb-05 19:00N 40°40' W 074°03'612.7
2018-Feb-05 18:30N 40°46' W 074°00'2 3.9
2018-Feb-05 18:00N 40°48' W 073°59'611.4
2018-Feb-05 17:30N 40°43' W 074°01'611.5
2018-Feb-05 16:58N 40°37' W 074°03'4 8.7
2018-Feb-05 16:29N 40°32' W 074°02'4 7.8
2018-Feb-05 15:58N 40°28' W 074°02'  
Track history (hours):
 
Tides and Currents Weather Stations Pressure Air Temp Water Temp Dewpoint Dewpoint Depression Visibility Wind Speed Wind Dir Waves Ship Positions

CG Shrike

Last reported at 2018-Feb-15 14:45 UTC. Time now 2018-Feb-20 05:39 UTC.
Position N 40°28' W 074°01'.

Length 26 m; draft 1.7 m.

Type: Law enforcement. MMSI: 366999618.

Date/timePositionNaut miles runAvg speedWind from/ knotsBaromVisibWave heightAir tempDewpointWater temp
2018-Feb-15 14:45N 40°28' W 074°01'0 1.5
2018-Feb-15 14:27N 40°28' W 074°01'4 8.4
2018-Feb-15 14:00N 40°32' W 074°02'4 8.2
2018-Feb-15 13:29N 40°36' W 074°01'0 0.0
2018-Feb-15 12:56N 40°36' W 074°01'0 0.0
2018-Feb-15 12:26N 40°36' W 074°01'0 0.0
2018-Feb-15 11:59N 40°36' W 074°01'0 0.0
2018-Feb-15 11:29N 40°36' W 074°01'0 0.0
2018-Feb-15 10:56N 40°36' W 074°01'0 0.0
2018-Feb-15 10:29N 40°36' W 074°01'0 0.0
2018-Feb-15 09:56N 40°36' W 074°01'0 0.0
2018-Feb-15 09:28N 40°36' W 074°01'0 0.0
2018-Feb-15 08:58N 40°36' W 074°01'0 0.0
2018-Feb-15 08:28N 40°36' W 074°01'0 0.0
2018-Feb-15 07:55N 40°36' W 074°01'0 0.0
2018-Feb-15 07:25N 40°36' W 074°01'0 0.0
2018-Feb-15 06:59N 40°36' W 074°01'0 0.0
2018-Feb-15 06:25N 40°36' W 074°01'0 0.0
2018-Feb-15 05:59N 40°36' W 074°01'0 0.1
2018-Feb-15 05:29N 40°36' W 074°01'0 0.0
2018-Feb-15 04:56N 40°36' W 074°01'0 0.0
2018-Feb-15 04:29N 40°36' W 074°01'0 0.0
2018-Feb-15 03:56N 40°36' W 074°01'0 0.1
2018-Feb-15 03:29N 40°36' W 074°01'0 0.0
2018-Feb-15 02:59N 40°36' W 074°01'0 0.0
2018-Feb-15 02:29N 40°36' W 074°01'0 0.0
2018-Feb-15 01:59N 40°36' W 074°01'0 0.1
2018-Feb-15 01:29N 40°36' W 074°01'0 0.0
2018-Feb-15 00:53N 40°36' W 074°01'0 0.1
2018-Feb-15 00:25N 40°36' W 074°01'0 0.0
2018-Feb-14 23:53N 40°36' W 074°01'0 0.0
2018-Feb-14 23:29N 40°36' W 074°01'0 0.0
2018-Feb-14 22:59N 40°36' W 074°01'0 0.0
2018-Feb-14 22:28N 40°36' W 074°01'0 0.0
2018-Feb-14 21:58N 40°36' W 074°01'0 0.0
2018-Feb-14 21:28N 40°36' W 074°01'0 0.0
2018-Feb-14 20:52N 40°36' W 074°01'0 0.0
2018-Feb-14 20:28N 40°36' W 074°01'0 0.0
2018-Feb-14 19:58N 40°36' W 074°01'0 0.0
2018-Feb-14 19:26N 40°36' W 074°01'0 0.0
2018-Feb-14 18:56N 40°36' W 074°01'0 0.0
2018-Feb-14 18:29N 40°36' W 074°01'0 0.0
2018-Feb-14 17:59N 40°36' W 074°01'0 0.0
2018-Feb-14 17:29N 40°36' W 074°01'0 0.0
2018-Feb-14 16:59N 40°36' W 074°01'2 3.2
2018-Feb-14 16:30N 40°34' W 074°02'610.9
2018-Feb-14 15:58N 40°28' W 074°02'1 1.9
2018-Feb-14 15:29N 40°28' W 074°01'0 0.2
2018-Feb-14 14:59N 40°28' W 074°01'2 4.1
2018-Feb-14 14:29N 40°29' W 073°59'3 6.8
2018-Feb-14 14:00N 40°26' W 073°58'0 0.0
2018-Feb-14 13:30N 40°26' W 073°58'0 0.0
2018-Feb-14 12:57N 40°26' W 073°58'0 0.0
2018-Feb-14 12:30N 40°26' W 073°58'0 0.0
2018-Feb-14 11:54N 40°26' W 073°58'0 0.0
2018-Feb-14 11:30N 40°26' W 073°58'0 0.0
2018-Feb-14 10:57N 40°26' W 073°58'0 0.0
2018-Feb-14 10:30N 40°26' W 073°58'0 0.0
2018-Feb-14 09:57N 40°26' W 073°58'0 0.0
2018-Feb-14 09:30N 40°26' W 073°58'0 0.0
2018-Feb-14 08:57N 40°26' W 073°58'0 0.0
2018-Feb-14 08:27N 40°26' W 073°58'0 0.0
2018-Feb-14 07:57N 40°26' W 073°58'0 0.0
2018-Feb-14 07:30N 40°26' W 073°58'0 0.0
2018-Feb-14 07:00N 40°26' W 073°58'0 0.0
2018-Feb-14 06:30N 40°26' W 073°58'0 0.0
2018-Feb-14 05:18N 40°26' W 073°58'0 0.1
2018-Feb-14 04:57N 40°26' W 073°58'0 0.0
2018-Feb-14 04:30N 40°26' W 073°58'0 0.0
2018-Feb-14 04:00N 40°26' W 073°58'0 0.0
2018-Feb-14 03:30N 40°26' W 073°58'0 0.0
2018-Feb-14 03:00N 40°26' W 073°58'0 0.0
2018-Feb-14 02:27N 40°26' W 073°58'0 0.0
2018-Feb-14 02:01N 40°26' W 073°58'0 0.0
2018-Feb-14 01:30N 40°26' W 073°58'0 0.0
2018-Feb-14 00:57N 40°26' W 073°58'0 0.0
2018-Feb-14 00:30N 40°26' W 073°58'0 0.0
2018-Feb-13 23:45N 40°26' W 073°58'0 0.0
2018-Feb-13 23:27N 40°26' W 073°58'0 0.0
2018-Feb-13 22:57N 40°26' W 073°58'  
2018-Feb-08 06:30N 41°09' W 072°40'69 3.3
2018-Feb-07 09:30N 40°39' W 074°02'0 0.0
2018-Feb-07 09:00N 40°39' W 074°02'0 0.0
2018-Feb-07 08:27N 40°39' W 074°02'0 0.0
2018-Feb-07 08:00N 40°39' W 074°02'0 0.0
2018-Feb-07 07:30N 40°39' W 074°02'0 0.1
2018-Feb-07 07:00N 40°39' W 074°02'0 0.1
2018-Feb-07 06:30N 40°39' W 074°02'0 0.0
2018-Feb-07 06:00N 40°39' W 074°02'0 0.1
2018-Feb-07 05:30N 40°39' W 074°02'0 0.1
2018-Feb-07 05:00N 40°39' W 074°02'0 0.0
2018-Feb-07 04:30N 40°39' W 074°02'0 0.1
2018-Feb-07 04:00N 40°39' W 074°02'0 0.0
2018-Feb-07 03:30N 40°39' W 074°02'0 0.1
2018-Feb-07 02:55N 40°39' W 074°02'0 0.0
2018-Feb-07 02:28N 40°39' W 074°02'0 0.0
2018-Feb-07 02:00N 40°39' W 074°02'0 0.0
2018-Feb-07 01:30N 40°39' W 074°02'0 0.0
2018-Feb-07 01:00N 40°39' W 074°02'0 0.0
2018-Feb-07 00:30N 40°39' W 074°02'0 0.0
2018-Feb-07 00:00N 40°39' W 074°02'0 0.0
2018-Feb-06 23:27N 40°39' W 074°02'0 0.0
2018-Feb-06 23:00N 40°39' W 074°02'2 3.7
2018-Feb-06 22:30N 40°37' W 074°03'815.5
2018-Feb-06 22:00N 40°30' W 073°58'6 0.5
2018-Feb-06 11:00N 40°36' W 074°01'0 0.0
2018-Feb-06 10:30N 40°36' W 074°01'0 0.0
2018-Feb-06 09:58N 40°36' W 074°01'0 0.0
2018-Feb-06 09:28N 40°36' W 074°01'0 0.1
2018-Feb-06 08:58N 40°36' W 074°01'0 0.1
2018-Feb-06 08:28N 40°36' W 074°01'0 0.1
2018-Feb-06 07:58N 40°36' W 074°01'0 0.0
2018-Feb-06 07:19N 40°36' W 074°01'0 0.0
2018-Feb-06 06:55N 40°36' W 074°01'0 0.0
2018-Feb-06 06:28N 40°36' W 074°01'0 0.0
2018-Feb-06 05:55N 40°36' W 074°01'0 0.0
2018-Feb-06 05:28N 40°36' W 074°01'0 0.0
2018-Feb-06 04:58N 40°36' W 074°01'0 0.0
2018-Feb-06 04:28N 40°36' W 074°01'0 0.0
2018-Feb-06 03:55N 40°36' W 074°01'0 0.0
2018-Feb-06 03:28N 40°36' W 074°01'0 0.1
2018-Feb-06 02:55N 40°36' W 074°01'0 0.0
2018-Feb-06 02:21N 40°36' W 074°01'0 0.0
2018-Feb-06 01:57N 40°36' W 074°01'0 0.0
2018-Feb-06 01:30N 40°36' W 074°01'0 0.0
2018-Feb-06 00:54N 40°36' W 074°01'0 0.0
2018-Feb-06 00:27N 40°36' W 074°01'0 0.0
2018-Feb-06 00:00N 40°36' W 074°01'0 0.0
2018-Feb-05 23:28N 40°36' W 074°01'0 0.0
2018-Feb-05 22:58N 40°36' W 074°01'0 0.0
2018-Feb-05 22:25N 40°36' W 074°01'0 0.0
2018-Feb-05 21:55N 40°36' W 074°01'0 0.0
2018-Feb-05 21:28N 40°36' W 074°01'0 0.0
2018-Feb-05 20:52N 40°36' W 074°01'0 0.0
2018-Feb-05 20:28N 40°36' W 074°01'0 0.0
2018-Feb-05 19:58N 40°36' W 074°01'1 2.0
2018-Feb-05 19:28N 40°35' W 074°02'511.2
2018-Feb-05 19:00N 40°40' W 074°03'612.7
2018-Feb-05 18:30N 40°46' W 074°00'2 3.9
2018-Feb-05 18:00N 40°48' W 073°59'611.4
2018-Feb-05 17:30N 40°43' W 074°01'611.5
2018-Feb-05 16:58N 40°37' W 074°03'4 8.7
2018-Feb-05 16:29N 40°32' W 074°02'4 7.8
2018-Feb-05 15:58N 40°28' W 074°02'  

Dump ship's entire track history